createdAt,value
2019-04-16T00:00:28.139Z,99742.38
2019-04-16T00:00:59.376Z,99740.97
2019-04-16T00:01:30.593Z,99741.29
2019-04-16T00:02:01.804Z,99745.98
2019-04-16T00:02:33.011Z,99748.64
2019-04-16T00:03:04.223Z,99744.68
2019-04-16T00:03:35.461Z,99739.98
2019-04-16T00:04:06.724Z,99747.40
2019-04-16T00:04:37.910Z,99739.41
2019-04-16T00:05:09.122Z,99741.13
2019-04-16T00:05:40.322Z,99748.91
2019-04-16T00:06:11.673Z,99741.97
2019-04-16T00:06:42.884Z,99750.21
2019-04-16T00:07:14.077Z,99739.77
2019-04-16T00:07:45.285Z,99741.13
2019-04-16T00:08:27.477Z,99743.33
2019-04-16T00:08:49.426Z,99746.87
2019-04-16T00:09:20.632Z,99751.67
2019-04-16T00:09:51.847Z,99753.44
2019-04-16T00:10:23.039Z,99755.53
2019-04-16T00:10:54.296Z,99747.70
2019-04-16T00:11:25.643Z,99752.03
2019-04-16T00:11:56.857Z,99751.63
2019-04-16T00:12:28.081Z,99751.63
2019-04-16T00:12:59.268Z,99743.73
2019-04-16T00:13:30.491Z,99742.49
2019-04-16T00:14:03.475Z,99747.70
2019-04-16T00:14:34.610Z,99750.73
2019-04-16T00:15:05.834Z,99749.52
2019-04-16T00:15:40.950Z,99739.94
2019-04-16T00:16:12.750Z,99744.36
2019-04-16T00:16:44.627Z,99741.95
2019-04-16T00:17:16.497Z,99748.42
2019-04-16T00:17:48.128Z,99747.06
2019-04-16T00:18:19.617Z,99747.06
2019-04-16T00:18:57.820Z,99743.63
2019-04-16T00:19:23.777Z,99751.82
2019-04-16T00:19:55.020Z,99747.48
2019-04-16T00:20:26.231Z,99744.45
2019-04-16T00:20:57.532Z,99748.84
2019-04-16T00:21:28.736Z,99748.16
2019-04-16T00:21:59.970Z,99746.86
2019-04-16T00:22:31.188Z,99745.73
2019-04-16T00:23:02.394Z,99744.81
2019-04-16T00:23:33.616Z,99747.42
2019-04-16T00:24:04.852Z,99748.34
2019-04-16T00:24:36.054Z,99749.19
2019-04-16T00:25:07.277Z,99744.08
2019-04-16T00:25:38.517Z,99745.56
2019-04-16T00:26:09.767Z,99744.73
2019-04-16T00:26:40.984Z,99745.16
2019-04-16T00:27:13.947Z,99748.17
2019-04-16T00:27:45.180Z,99750.37
2019-04-16T00:28:16.457Z,99743.48
2019-04-16T00:28:47.665Z,99740.45
2019-04-16T00:29:18.876Z,99751.72
2019-04-16T00:29:50.158Z,99745.05
2019-04-16T00:30:21.382Z,99739.00
2019-04-16T00:30:52.622Z,99734.73
2019-04-16T00:31:23.785Z,99741.24
2019-04-16T00:31:54.989Z,99745.61
2019-04-16T00:32:26.295Z,99746.96
2019-04-16T00:32:57.462Z,99747.39
2019-04-16T00:33:28.686Z,99742.13
2019-04-16T00:33:59.899Z,99747.29
2019-04-16T00:34:31.109Z,99740.69
2019-04-16T00:35:02.325Z,99744.13
2019-04-16T00:35:33.521Z,99738.53
2019-04-16T00:36:04.734Z,99743.48
2019-04-16T00:36:35.929Z,99735.80
2019-04-16T00:37:07.217Z,99745.48
2019-04-16T00:37:38.424Z,99751.58
2019-04-16T00:38:09.631Z,99746.38
2019-04-16T00:38:41.314Z,99748.98
2019-04-16T00:39:12.619Z,99747.20
2019-04-16T00:39:43.838Z,99754.14
2019-04-16T00:40:15.065Z,99746.31
2019-04-16T00:40:46.274Z,99749.72
2019-04-16T00:41:17.489Z,99735.95
2019-04-16T00:41:48.765Z,99748.65
2019-04-16T00:42:20.036Z,99750.42
2019-04-16T00:42:51.236Z,99756.47
2019-04-16T00:43:22.476Z,99750.78
2019-04-16T00:43:53.684Z,99755.12
2019-04-16T00:44:24.925Z,99752.09
2019-04-16T00:44:56.134Z,99748.65
2019-04-16T00:45:27.365Z,99746.52
2019-04-16T00:45:58.629Z,99750.55
2019-04-16T00:46:29.845Z,99753.67
2019-04-16T00:47:01.061Z,99749.26
2019-04-16T00:47:32.330Z,99746.65
2019-04-16T00:48:03.555Z,99755.30
2019-04-16T00:48:34.799Z,99750.09
2019-04-16T00:49:06.125Z,99750.64
2019-04-16T00:49:38.033Z,99755.86
2019-04-16T00:50:09.433Z,99748.88
2019-04-16T00:50:40.645Z,99753.54
2019-04-16T00:51:11.867Z,99749.20
2019-04-16T00:51:43.079Z,99750.00
2019-04-16T00:52:14.298Z,99749.12
2019-04-16T00:52:45.555Z,99747.40
2019-04-16T00:53:16.771Z,99758.33
2019-04-16T00:53:47.977Z,99760.84
2019-04-16T00:54:19.181Z,99749.95
2019-04-16T00:54:50.435Z,99755.58
2019-04-16T00:55:21.639Z,99753.77
2019-04-16T00:55:52.856Z,99748.56
2019-04-16T00:56:24.079Z,99756.92
2019-04-16T00:56:55.365Z,99760.84
2019-04-16T00:57:26.553Z,99764.34
2019-04-16T00:57:57.754Z,99762.70
2019-04-16T00:58:28.975Z,99759.63
2019-04-16T00:59:02.244Z,99757.11
2019-04-16T00:59:35.261Z,99761.06
2019-04-16T01:00:06.482Z,99758.80
2019-04-16T01:00:37.687Z,99759.30
2019-04-16T01:01:08.970Z,99759.81
2019-04-16T01:01:40.180Z,99763.30
2019-04-16T01:02:11.424Z,99760.31
2019-04-16T01:02:46.974Z,99769.02
2019-04-16T01:03:18.109Z,99765.94
2019-04-16T01:03:49.333Z,99766.75
2019-04-16T01:04:20.531Z,99770.19
2019-04-16T01:04:51.755Z,99771.17
2019-04-16T01:05:23.006Z,99773.31
2019-04-16T01:05:54.223Z,99768.19
2019-04-16T01:06:25.456Z,99770.38
2019-04-16T01:06:56.671Z,99776.94
2019-04-16T01:07:27.864Z,99772.09
2019-04-16T01:07:59.083Z,99772.56
2019-04-16T01:08:30.288Z,99776.05
2019-04-16T01:09:01.514Z,99771.64
2019-04-16T01:09:32.770Z,99769.96
2019-04-16T01:10:03.991Z,99777.83
2019-04-16T01:10:35.202Z,99776.48
2019-04-16T01:11:06.462Z,99776.56
2019-04-16T01:11:37.624Z,99770.09
2019-04-16T01:12:08.873Z,99766.19
2019-04-16T01:12:40.093Z,99770.52
2019-04-16T01:13:11.286Z,99770.56
2019-04-16T01:13:42.496Z,99774.89
2019-04-16T01:14:13.731Z,99771.07
2019-04-16T01:14:44.957Z,99767.16
2019-04-16T01:15:16.170Z,99773.59
2019-04-16T01:15:53.440Z,99767.86
2019-04-16T01:16:25.701Z,99772.09
2019-04-16T01:16:56.926Z,99775.17
2019-04-16T01:17:28.143Z,99773.95
2019-04-16T01:17:59.360Z,99777.83
2019-04-16T01:18:30.563Z,99776.42
2019-04-16T01:19:01.766Z,99781.13
2019-04-16T01:19:33.020Z,99781.00
2019-04-16T01:20:04.369Z,99774.43
2019-04-16T01:20:35.537Z,99772.16
2019-04-16T01:21:06.742Z,99776.06
2019-04-16T01:21:37.958Z,99774.34
2019-04-16T01:22:09.169Z,99776.02
2019-04-16T01:22:40.389Z,99780.84
2019-04-16T01:23:11.636Z,99773.88
2019-04-16T01:23:42.856Z,99775.13
2019-04-16T01:24:14.124Z,99773.41
2019-04-16T01:24:45.388Z,99777.73
2019-04-16T01:25:16.595Z,99777.32
2019-04-16T01:25:47.812Z,99774.72
2019-04-16T01:26:19.027Z,99775.31
2019-04-16T01:26:50.239Z,99777.32
2019-04-16T01:27:21.462Z,99776.81
2019-04-16T01:27:52.684Z,99774.61
2019-04-16T01:28:23.915Z,99780.72
2019-04-16T01:28:55.128Z,99778.94
2019-04-16T01:29:26.372Z,99781.46
2019-04-16T01:29:57.608Z,99771.39
2019-04-16T01:30:28.871Z,99767.90
2019-04-16T01:31:00.078Z,99583.17
2019-04-16T01:31:31.293Z,99776.52
2019-04-16T01:32:02.505Z,99767.81
2019-04-16T01:32:33.717Z,99768.27
2019-04-16T01:33:05.050Z,99771.77
2019-04-16T01:33:36.217Z,99772.70
2019-04-16T01:34:07.425Z,99774.89
2019-04-16T01:34:38.632Z,99774.47
2019-04-16T01:35:09.876Z,99772.70
2019-04-16T01:35:41.125Z,99773.63
2019-04-16T01:36:12.336Z,99775.22
2019-04-16T01:36:43.560Z,99768.97
2019-04-16T01:37:14.768Z,99765.89
2019-04-16T01:37:45.983Z,99769.75
2019-04-16T01:38:17.195Z,99770.95
2019-04-16T01:38:48.410Z,99764.43
2019-04-16T01:39:19.694Z,99765.73
2019-04-16T01:39:50.915Z,99766.53
2019-04-16T01:40:22.118Z,99765.73
2019-04-16T01:40:53.331Z,99765.75
2019-04-16T01:41:24.541Z,99756.77
2019-04-16T01:41:55.809Z,99764.21
2019-04-16T01:42:27.016Z,99758.08
2019-04-16T01:42:58.244Z,99760.25
2019-04-16T01:43:29.445Z,99756.81
2019-04-16T01:44:00.701Z,99759.84
2019-04-16T01:44:31.923Z,99760.77
2019-04-16T01:45:03.132Z,99759.52
2019-04-16T01:45:34.416Z,99753.69
2019-04-16T01:46:05.629Z,99753.64
2019-04-16T01:46:36.839Z,99757.50
2019-04-16T01:47:08.048Z,99751.45
2019-04-16T01:47:39.266Z,99751.02
2019-04-16T01:48:10.648Z,99760.06
2019-04-16T01:48:41.887Z,99753.49
2019-04-16T01:49:13.100Z,99755.63
2019-04-16T01:49:44.341Z,99757.76
2019-04-16T01:50:15.634Z,99751.63
2019-04-16T01:50:46.840Z,99760.75
2019-04-16T01:51:18.046Z,99759.06
2019-04-16T01:51:49.275Z,99755.99
2019-04-16T01:52:20.477Z,99755.58
2019-04-16T01:52:51.684Z,99753.44
2019-04-16T01:53:22.893Z,99751.30
2019-04-16T01:53:54.113Z,99748.73
2019-04-16T01:54:25.326Z,99752.70
2019-04-16T01:54:56.529Z,99751.41
2019-04-16T01:55:27.768Z,99752.70
2019-04-16T01:55:58.980Z,99746.65
2019-04-16T01:56:30.189Z,99745.80
2019-04-16T01:57:01.410Z,99754.53
2019-04-16T01:57:32.614Z,99751.13
2019-04-16T01:58:03.971Z,99748.16
2019-04-16T01:58:35.233Z,99747.32
2019-04-16T01:59:06.465Z,99748.25
2019-04-16T01:59:37.719Z,99746.11
2019-04-16T02:00:08.932Z,99746.53
2019-04-16T02:00:40.140Z,99738.39
2019-04-16T02:01:12.316Z,99746.21
2019-04-16T02:01:44.258Z,99748.81
2019-04-16T02:02:16.020Z,99743.66
2019-04-16T02:02:47.390Z,99750.16
2019-04-16T02:03:18.611Z,99744.91
2019-04-16T02:03:49.814Z,99751.42
2019-04-16T02:04:21.049Z,99752.83
2019-04-16T02:04:52.791Z,99751.98
2019-04-16T02:05:24.142Z,99746.36
2019-04-16T02:05:55.591Z,99757.25
2019-04-16T02:06:26.801Z,99746.03
2019-04-16T02:06:58.006Z,99754.36
2019-04-16T02:07:29.221Z,99757.81
2019-04-16T02:08:00.435Z,99760.00
2019-04-16T02:08:31.816Z,99763.91
2019-04-16T02:09:03.396Z,99764.33
2019-04-16T02:09:35.655Z,99767.36
2019-04-16T02:10:08.035Z,99766.89
2019-04-16T02:10:39.401Z,99770.80
2019-04-16T02:11:11.398Z,99765.58
2019-04-16T02:11:42.609Z,99759.44
2019-04-16T02:12:14.171Z,99767.58
2019-04-16T02:12:45.414Z,99764.93
2019-04-16T02:13:16.625Z,99769.08
2019-04-16T02:13:47.850Z,99766.80
2019-04-16T02:14:22.121Z,99771.36
2019-04-16T02:14:52.069Z,99768.19
2019-04-16T02:15:23.269Z,99766.28
2019-04-16T02:15:54.490Z,99765.34
2019-04-16T02:16:26.010Z,99770.14
2019-04-16T02:16:57.454Z,99768.00
2019-04-16T02:17:28.660Z,99775.92
2019-04-16T02:18:00.251Z,99773.44
2019-04-16T02:18:31.627Z,99766.03
2019-04-16T02:19:02.885Z,99764.97
2019-04-16T02:19:34.101Z,99766.63
2019-04-16T02:20:06.923Z,99764.34
2019-04-16T02:20:39.336Z,99765.18
2019-04-16T02:21:11.356Z,99759.97
2019-04-16T02:21:42.608Z,99763.92
2019-04-16T02:22:14.114Z,99769.19
2019-04-16T02:22:45.763Z,99770.08
2019-04-16T02:23:17.470Z,99765.32
2019-04-16T02:23:48.881Z,99761.31
2019-04-16T02:24:20.071Z,99763.03
2019-04-16T02:24:51.275Z,99762.05
2019-04-16T02:25:22.495Z,99757.84
2019-04-16T02:25:53.699Z,99761.85
2019-04-16T02:26:24.915Z,99761.99
2019-04-16T02:26:56.130Z,99759.08
2019-04-16T02:27:27.399Z,99755.77
2019-04-16T02:27:58.628Z,99755.50
2019-04-16T02:28:29.837Z,99756.64
2019-04-16T02:29:01.484Z,99753.36
2019-04-16T02:29:32.720Z,99754.42
2019-04-16T02:30:05.169Z,99760.31
2019-04-16T02:30:39.098Z,99749.33
2019-04-16T02:31:15.425Z,99747.43
2019-04-16T02:31:42.843Z,99750.34
2019-04-16T02:32:14.223Z,99748.66
2019-04-16T02:32:45.437Z,99752.60
2019-04-16T02:33:16.648Z,99753.14
2019-04-16T02:33:47.861Z,99753.55
2019-04-16T02:34:19.062Z,99755.63
2019-04-16T02:34:50.288Z,99758.94
2019-04-16T02:35:22.161Z,99752.70
2019-04-16T02:35:53.373Z,99750.45
2019-04-16T02:36:24.585Z,99751.30
2019-04-16T02:37:00.274Z,99757.29
2019-04-16T02:37:35.379Z,99755.44
2019-04-16T02:38:01.769Z,99754.27
2019-04-16T02:38:32.977Z,99754.86
2019-04-16T02:39:04.215Z,99748.48
2019-04-16T02:39:47.715Z,99747.84
2019-04-16T02:40:08.395Z,99746.53
2019-04-16T02:40:39.651Z,99750.53
2019-04-16T02:41:10.923Z,99748.02
2019-04-16T02:41:42.163Z,99746.78
2019-04-16T02:42:13.366Z,99748.68
2019-04-16T02:42:44.573Z,99754.42
2019-04-16T02:43:15.786Z,99753.83
2019-04-16T02:43:46.998Z,99750.40
2019-04-16T02:44:18.239Z,99752.02
2019-04-16T02:44:50.369Z,99745.12
2019-04-16T02:45:23.524Z,99747.66
2019-04-16T02:45:58.367Z,99744.28
2019-04-16T02:46:32.381Z,99747.06
2019-04-16T02:47:05.347Z,99748.30
2019-04-16T02:47:40.055Z,99747.61
2019-04-16T02:48:06.504Z,99746.66
2019-04-16T02:48:37.753Z,99750.22
2019-04-16T02:49:08.965Z,99748.55
2019-04-16T02:49:40.178Z,99753.02
2019-04-16T02:50:11.441Z,99751.81
2019-04-16T02:50:42.686Z,99751.47
2019-04-16T02:51:13.942Z,99747.95
2019-04-16T02:51:45.148Z,99748.30
2019-04-16T02:52:17.335Z,99747.78
2019-04-16T02:52:51.089Z,99752.59
2019-04-16T02:53:24.550Z,99751.27
2019-04-16T02:53:58.685Z,99751.30
2019-04-16T02:54:32.385Z,99752.11
2019-04-16T02:55:08.151Z,99751.22
2019-04-16T02:55:33.459Z,99750.81
2019-04-16T02:56:04.726Z,99753.89
2019-04-16T02:56:35.929Z,99754.31
2019-04-16T02:57:07.165Z,99758.34
2019-04-16T02:57:38.354Z,99753.59
2019-04-16T02:58:09.640Z,99756.31
2019-04-16T02:58:40.860Z,99752.88
2019-04-16T02:59:13.545Z,99752.95
2019-04-16T02:59:47.339Z,99755.16
2019-04-16T03:00:18.576Z,99753.08
2019-04-16T03:00:50.817Z,99754.48
2019-04-16T03:01:22.077Z,99760.20
2019-04-16T03:01:53.287Z,99751.16
2019-04-16T03:02:24.502Z,99752.16
2019-04-16T03:02:55.699Z,99756.95
2019-04-16T03:03:26.929Z,99751.80
2019-04-16T03:03:58.128Z,99751.44
2019-04-16T03:04:29.349Z,99754.99
2019-04-16T03:05:00.638Z,99755.82
2019-04-16T03:05:31.837Z,99752.22
2019-04-16T03:06:03.061Z,99755.60
2019-04-16T03:06:34.273Z,99751.33
2019-04-16T03:07:05.466Z,99758.74
2019-04-16T03:07:36.682Z,99754.00
2019-04-16T03:08:07.974Z,99749.82
2019-04-16T03:08:39.169Z,99754.17
2019-04-16T03:09:10.375Z,99752.44
2019-04-16T03:09:41.594Z,99755.05
2019-04-16T03:10:13.873Z,99750.30
2019-04-16T03:10:45.417Z,99750.30
2019-04-16T03:11:18.004Z,99754.27
2019-04-16T03:11:49.374Z,99747.64
2019-04-16T03:12:21.557Z,99751.49
2019-04-16T03:12:52.990Z,99750.14
2019-04-16T03:13:24.307Z,99746.17
2019-04-16T03:13:58.315Z,99748.78
2019-04-16T03:14:30.138Z,99749.19
2019-04-16T03:15:02.484Z,99748.41
2019-04-16T03:15:34.185Z,99745.02
2019-04-16T03:16:06.377Z,99749.89
2019-04-16T03:16:38.765Z,99747.38
2019-04-16T03:17:11.331Z,99745.77
2019-04-16T03:17:43.768Z,99750.20
2019-04-16T03:18:16.215Z,99749.84
2019-04-16T03:18:48.379Z,99752.97
2019-04-16T03:19:20.355Z,99747.39
2019-04-16T03:19:52.103Z,99746.14
2019-04-16T03:20:24.687Z,99747.08
2019-04-16T03:20:56.616Z,99751.00
2019-04-16T03:21:28.241Z,99748.07
2019-04-16T03:22:02.233Z,99744.63
2019-04-16T03:22:33.397Z,99738.69
2019-04-16T03:23:06.656Z,99746.61
2019-04-16T03:23:38.060Z,99747.50
2019-04-16T03:24:10.016Z,99744.05
2019-04-16T03:24:41.457Z,99741.86
2019-04-16T03:25:14.131Z,99739.72
2019-04-16T03:25:45.578Z,99739.30
2019-04-16T03:26:18.172Z,99743.37
2019-04-16T03:26:50.465Z,99739.83
2019-04-16T03:27:23.014Z,99744.53
2019-04-16T03:27:55.102Z,99748.45
2019-04-16T03:28:27.385Z,99750.26
2019-04-16T03:28:59.508Z,99750.73
2019-04-16T03:29:31.240Z,99755.52
2019-04-16T03:30:03.469Z,99751.61
2019-04-16T03:30:40.882Z,99758.08
2019-04-16T03:31:09.683Z,99757.25
2019-04-16T03:31:41.260Z,99757.04
2019-04-16T03:32:14.890Z,99759.27
2019-04-16T03:32:45.473Z,99759.27
2019-04-16T03:33:16.711Z,99760.67
2019-04-16T03:33:50.409Z,99766.03
2019-04-16T03:34:22.027Z,99764.73
2019-04-16T03:34:54.197Z,99768.18
2019-04-16T03:35:26.697Z,99763.05
2019-04-16T03:35:58.620Z,99769.58
2019-04-16T03:36:30.299Z,99768.28
2019-04-16T03:37:02.872Z,99770.51
2019-04-16T03:37:34.317Z,99772.23
2019-04-16T03:38:06.257Z,99774.00
2019-04-16T03:38:41.807Z,99769.20
2019-04-16T03:39:13.209Z,99767.90
2019-04-16T03:39:44.897Z,99768.70
2019-04-16T03:40:18.631Z,99768.70
2019-04-16T03:40:49.277Z,99772.70
2019-04-16T03:41:20.483Z,99774.47
2019-04-16T03:41:55.996Z,99778.05
2019-04-16T03:42:27.376Z,99775.09
2019-04-16T03:42:59.296Z,99773.78
2019-04-16T03:43:32.804Z,99777.31
2019-04-16T03:44:04.968Z,99778.11
2019-04-16T03:44:37.375Z,99777.36
2019-04-16T03:45:09.824Z,99780.84
2019-04-16T03:45:41.595Z,99773.88
2019-04-16T03:46:14.178Z,99775.17
2019-04-16T03:46:46.940Z,99780.44
2019-04-16T03:47:19.920Z,99778.34
2019-04-16T03:47:52.296Z,99779.19
2019-04-16T03:48:24.467Z,99773.13
2019-04-16T03:48:56.461Z,99776.53
2019-04-16T03:49:28.500Z,99776.06
2019-04-16T03:50:00.231Z,99773.50
2019-04-16T03:50:32.227Z,99774.84
2019-04-16T03:51:04.437Z,99776.53
2019-04-16T03:51:36.592Z,99768.66
2019-04-16T03:52:09.300Z,99775.55
2019-04-16T03:52:45.533Z,99774.61
2019-04-16T03:53:16.918Z,99768.05
2019-04-16T03:53:49.624Z,99769.26
2019-04-16T03:54:22.421Z,99771.82
2019-04-16T03:54:54.118Z,99770.89
2019-04-16T03:55:26.455Z,99767.34
2019-04-16T03:55:58.277Z,99766.88
2019-04-16T03:56:31.216Z,99763.38
2019-04-16T03:57:02.874Z,99769.38
2019-04-16T03:57:34.239Z,99762.36
2019-04-16T03:58:06.960Z,99763.60
2019-04-16T03:58:39.380Z,99765.23
2019-04-16T03:59:12.051Z,99765.59
2019-04-16T03:59:43.575Z,99763.50
2019-04-16T04:00:14.832Z,99760.02
2019-04-16T04:00:46.042Z,99761.26
2019-04-16T04:01:17.494Z,99764.66
2019-04-16T04:01:48.747Z,99762.47
2019-04-16T04:02:22.781Z,99764.75
2019-04-16T04:02:55.141Z,99760.89
2019-04-16T04:03:26.816Z,99769.52
2019-04-16T04:03:58.591Z,99765.23
2019-04-16T04:04:30.064Z,99767.93
2019-04-16T04:05:06.141Z,99766.68
2019-04-16T04:05:34.888Z,99767.52
2019-04-16T04:06:08.073Z,99762.72
2019-04-16T04:06:40.660Z,99772.26
2019-04-16T04:07:13.329Z,99774.51
2019-04-16T04:07:45.098Z,99765.94
2019-04-16T04:08:17.917Z,99768.70
2019-04-16T04:08:53.087Z,99773.49
2019-04-16T04:09:23.241Z,99774.42
2019-04-16T04:09:55.242Z,99778.09
2019-04-16T04:10:30.861Z,99776.80
2019-04-16T04:11:00.462Z,99781.69
2019-04-16T04:11:31.693Z,99779.70
2019-04-16T04:12:02.944Z,99784.48
2019-04-16T04:12:34.176Z,99781.91
2019-04-16T04:13:05.783Z,99780.66
2019-04-16T04:13:37.055Z,99774.56
2019-04-16T04:14:08.269Z,99785.78
2019-04-16T04:14:39.499Z,99779.22
2019-04-16T04:15:10.935Z,99774.86
2019-04-16T04:15:42.189Z,99776.34
2019-04-16T04:16:13.404Z,99773.82
2019-04-16T04:16:44.619Z,99773.88
2019-04-16T04:17:15.833Z,99777.83
2019-04-16T04:17:47.043Z,99777.83
2019-04-16T04:18:18.395Z,99780.80
2019-04-16T04:18:49.688Z,99780.43
2019-04-16T04:19:20.949Z,99785.68
2019-04-16T04:19:52.154Z,99780.11
2019-04-16T04:20:23.381Z,99784.43
2019-04-16T04:20:54.605Z,99785.64
2019-04-16T04:21:25.867Z,99787.78
2019-04-16T04:21:57.073Z,99783.64
2019-04-16T04:22:28.333Z,99786.01
2019-04-16T04:22:59.545Z,99787.90
2019-04-16T04:23:30.743Z,99788.91
2019-04-16T04:24:02.023Z,99791.72
2019-04-16T04:24:33.215Z,99790.68
2019-04-16T04:25:05.242Z,99790.00
2019-04-16T04:25:37.083Z,99793.77
2019-04-16T04:26:10.061Z,99794.02
2019-04-16T04:26:42.406Z,99797.50
2019-04-16T04:27:18.249Z,99794.19
2019-04-16T04:27:47.636Z,99792.60
2019-04-16T04:28:20.543Z,99792.35
2019-04-16T04:28:52.647Z,99789.50
2019-04-16T04:29:24.929Z,99798.23
2019-04-16T04:29:57.281Z,99802.52
2019-04-16T04:30:29.643Z,99797.78
2019-04-16T04:31:01.951Z,99799.50
2019-04-16T04:31:33.246Z,99799.55
2019-04-16T04:32:04.501Z,99800.08
2019-04-16T04:32:36.283Z,99803.95
2019-04-16T04:33:09.417Z,99799.78
2019-04-16T04:33:42.531Z,99792.09
2019-04-16T04:34:15.375Z,99796.88
2019-04-16T04:34:48.728Z,99804.19
2019-04-16T04:35:21.803Z,99797.30
2019-04-16T04:35:52.394Z,99796.92
2019-04-16T04:36:27.071Z,99796.88
2019-04-16T04:36:59.861Z,99797.72
2019-04-16T04:37:31.224Z,99804.11
2019-04-16T04:38:04.110Z,99801.97
2019-04-16T04:38:37.562Z,99801.00
2019-04-16T04:39:09.947Z,99804.45
2019-04-16T04:39:43.599Z,99798.28
2019-04-16T04:40:16.248Z,99797.36
2019-04-16T04:40:50.528Z,99802.14
2019-04-16T04:41:23.068Z,99808.61
2019-04-16T04:41:56.451Z,99808.57
2019-04-16T04:42:28.255Z,99807.69
2019-04-16T04:43:00.794Z,99807.65
2019-04-16T04:43:32.639Z,99811.59
2019-04-16T04:44:05.237Z,99810.70
2019-04-16T04:44:37.226Z,99809.83
2019-04-16T04:45:10.055Z,99803.36
2019-04-16T04:45:41.698Z,99810.45
2019-04-16T04:46:14.973Z,99814.78
2019-04-16T04:46:46.117Z,99817.81
2019-04-16T04:47:19.939Z,99817.64
2019-04-16T04:47:52.269Z,99816.77
2019-04-16T04:48:24.367Z,99810.76
2019-04-16T04:48:59.912Z,99814.23
2019-04-16T04:49:30.402Z,99809.83
2019-04-16T04:50:03.556Z,99818.03
2019-04-16T04:50:35.274Z,99814.16
2019-04-16T04:51:08.453Z,99816.80
2019-04-16T04:51:43.514Z,99810.29
2019-04-16T04:52:14.702Z,99813.36
2019-04-16T04:52:46.875Z,99815.55
2019-04-16T04:53:19.577Z,99809.58
2019-04-16T04:53:52.171Z,99806.17
2019-04-16T04:54:23.558Z,99810.20
2019-04-16T04:54:54.909Z,99808.09
2019-04-16T04:55:27.041Z,99804.73
2019-04-16T04:55:58.419Z,99811.20
2019-04-16T04:56:29.840Z,99809.86
2019-04-16T04:57:01.137Z,99805.91
2019-04-16T04:57:32.341Z,99810.73
2019-04-16T04:58:03.577Z,99808.55
2019-04-16T04:58:34.908Z,99805.15
2019-04-16T04:59:06.122Z,99808.59
2019-04-16T04:59:37.527Z,99807.33
2019-04-16T05:00:09.537Z,99807.34
2019-04-16T05:00:41.209Z,99809.55
2019-04-16T05:01:13.878Z,99808.75
2019-04-16T05:01:45.375Z,99808.67
2019-04-16T05:02:16.580Z,99807.71
2019-04-16T05:02:47.785Z,99807.22
2019-04-16T05:03:19.225Z,99808.44
2019-04-16T05:03:50.489Z,99812.30
2019-04-16T05:04:21.694Z,99812.22
2019-04-16T05:04:53.300Z,99793.27
2019-04-16T05:05:25.811Z,99810.34
2019-04-16T05:05:57.187Z,99810.72
2019-04-16T05:06:28.385Z,99809.33
2019-04-16T05:06:59.598Z,99812.27
2019-04-16T05:07:30.810Z,99810.00
2019-04-16T05:08:02.071Z,99807.30
2019-04-16T05:08:33.273Z,99807.59
2019-04-16T05:09:04.498Z,99803.55
2019-04-16T05:09:36.733Z,99801.70
2019-04-16T05:10:08.453Z,99800.17
2019-04-16T05:10:43.110Z,99805.15
2019-04-16T05:11:15.781Z,99802.78
2019-04-16T05:11:48.393Z,99794.26
2019-04-16T05:12:21.352Z,99792.25
2019-04-16T05:12:53.549Z,99790.18
2019-04-16T05:13:25.291Z,99793.05
2019-04-16T05:13:57.135Z,99791.59
2019-04-16T05:14:28.572Z,99789.36
2019-04-16T05:14:59.787Z,99789.66
2019-04-16T05:15:31.010Z,99794.72
2019-04-16T05:16:02.777Z,99789.88
2019-04-16T05:16:35.038Z,99791.02
2019-04-16T05:17:07.586Z,99792.69
2019-04-16T05:17:39.305Z,99790.86
2019-04-16T05:18:10.997Z,99799.47
2019-04-16T05:18:42.722Z,99795.94
2019-04-16T05:19:15.574Z,99801.09
2019-04-16T05:19:47.057Z,99794.52
2019-04-16T05:20:18.293Z,99802.77
2019-04-16T05:20:49.482Z,99797.17
2019-04-16T05:21:20.689Z,99803.28
2019-04-16T05:21:51.898Z,99803.23
2019-04-16T05:22:23.166Z,99807.14
2019-04-16T05:22:54.518Z,99797.49
2019-04-16T05:23:26.169Z,99802.72
2019-04-16T05:23:58.188Z,99803.54
2019-04-16T05:24:30.026Z,99805.26
2019-04-16T05:25:02.457Z,99807.05
2019-04-16T05:25:34.490Z,99810.44
2019-04-16T05:26:05.821Z,99803.28
2019-04-16T05:26:37.336Z,99807.78
2019-04-16T05:27:09.471Z,99809.19
2019-04-16T05:27:41.593Z,99808.72
2019-04-16T05:28:13.442Z,99809.56
2019-04-16T05:28:45.693Z,99815.66
2019-04-16T05:29:18.617Z,99806.56
2019-04-16T05:29:50.031Z,99810.18
2019-04-16T05:30:22.148Z,99805.12
2019-04-16T05:30:53.515Z,99807.41
2019-04-16T05:31:26.119Z,99807.92
2019-04-16T05:31:58.235Z,99810.13
2019-04-16T05:32:34.008Z,99816.17
2019-04-16T05:33:05.608Z,99813.42
2019-04-16T05:33:37.517Z,99810.70
2019-04-16T05:34:08.617Z,99807.11
2019-04-16T05:34:39.836Z,99814.41
2019-04-16T05:35:11.258Z,99813.09
2019-04-16T05:35:42.468Z,99817.48
2019-04-16T05:36:15.091Z,99813.47
2019-04-16T05:36:47.903Z,99813.84
2019-04-16T05:37:20.045Z,99817.23
2019-04-16T05:37:52.332Z,99810.75
2019-04-16T05:38:24.488Z,99809.91
2019-04-16T05:38:56.512Z,99816.55
2019-04-16T05:39:28.701Z,99817.39
2019-04-16T05:40:00.169Z,99816.44
2019-04-16T05:40:34.236Z,99818.95
2019-04-16T05:41:13.034Z,99799.79
2019-04-16T05:41:38.076Z,99814.55
2019-04-16T05:42:09.360Z,99818.83
2019-04-16T05:42:40.812Z,99821.39
2019-04-16T05:43:12.262Z,99819.55
2019-04-16T05:43:43.488Z,99822.16
2019-04-16T05:44:14.698Z,99817.00
2019-04-16T05:44:45.906Z,99819.05
2019-04-16T05:45:17.112Z,99816.12
2019-04-16T05:45:48.321Z,99816.02
2019-04-16T05:46:19.570Z,99817.26
2019-04-16T05:46:50.803Z,99821.97
2019-04-16T05:47:22.016Z,99813.70
2019-04-16T05:47:53.255Z,99814.91
2019-04-16T05:48:24.457Z,99812.17
2019-04-16T05:48:55.670Z,99815.63
2019-04-16T05:49:26.881Z,99816.50
2019-04-16T05:49:58.766Z,99815.15
2019-04-16T05:50:30.060Z,99811.52
2019-04-16T05:51:01.282Z,99814.40
2019-04-16T05:51:32.584Z,99813.55
2019-04-16T05:52:04.194Z,99816.58
2019-04-16T05:52:36.573Z,99818.68
2019-04-16T05:53:09.176Z,99816.42
2019-04-16T05:53:40.923Z,99814.23
2019-04-16T05:54:13.260Z,99822.00
2019-04-16T05:54:45.372Z,99817.13
2019-04-16T05:55:17.960Z,99812.44
2019-04-16T05:55:50.500Z,99810.72
2019-04-16T05:56:24.050Z,99815.53
2019-04-16T05:56:55.607Z,99814.70
2019-04-16T05:57:27.488Z,99813.50
2019-04-16T05:57:59.006Z,99814.09
2019-04-16T05:58:30.740Z,99815.08
2019-04-16T05:59:03.356Z,99813.36
2019-04-16T05:59:35.048Z,99815.88
2019-04-16T06:00:10.148Z,99821.51
2019-04-16T06:00:41.808Z,99817.18
2019-04-16T06:01:14.088Z,99817.52
2019-04-16T06:01:46.201Z,99812.73
2019-04-16T06:02:18.826Z,99814.23
2019-04-16T06:02:50.839Z,99814.95
2019-04-16T06:03:22.467Z,99821.07
2019-04-16T06:03:54.253Z,99819.28
2019-04-16T06:04:26.092Z,99814.88
2019-04-16T06:04:57.305Z,99813.62
2019-04-16T06:05:28.512Z,99814.00
2019-04-16T06:05:59.986Z,99813.04
2019-04-16T06:06:32.436Z,99813.34
2019-04-16T06:07:07.582Z,99815.38
2019-04-16T06:07:38.005Z,99816.45
2019-04-16T06:08:10.288Z,99811.94
2019-04-16T06:08:41.800Z,99817.09
2019-04-16T06:09:13.603Z,99812.81
2019-04-16T06:09:45.325Z,99810.37
2019-04-16T06:10:17.891Z,99808.34
2019-04-16T06:10:51.085Z,99807.80
2019-04-16T06:11:29.200Z,99808.88
2019-04-16T06:11:55.408Z,99805.98
2019-04-16T06:12:28.154Z,99807.70
2019-04-16T06:12:59.378Z,99800.33